createdAt,value
2019-03-21T00:02:07.820Z,10.49
2019-03-21T00:06:16.343Z,10.54
2019-03-21T00:10:35.785Z,10.41
2019-03-21T00:15:01.633Z,10.34
2019-03-21T00:19:07.327Z,10.54
2019-03-21T00:23:13.020Z,10.55
2019-03-21T00:27:18.707Z,10.50
2019-03-21T00:31:24.515Z,10.30
2019-03-21T00:35:30.353Z,10.25
2019-03-21T00:39:36.028Z,10.25
2019-03-21T00:43:41.720Z,10.33
2019-03-21T00:47:47.992Z,10.45
2019-03-21T00:51:53.686Z,10.62
2019-03-21T00:56:00.945Z,10.61
2019-03-21T01:00:24.072Z,10.47
2019-03-21T01:04:30.200Z,10.44
2019-03-21T01:08:35.933Z,10.42
2019-03-21T01:12:41.633Z,10.36
2019-03-21T01:16:47.326Z,10.26
2019-03-21T01:20:53.022Z,10.16
2019-03-21T01:24:58.699Z,10.11
2019-03-21T01:29:04.509Z,9.99
2019-03-21T01:33:10.193Z,9.93
2019-03-21T01:37:15.917Z,9.89
2019-03-21T01:41:21.718Z,9.80
2019-03-21T01:45:27.789Z,9.62
2019-03-21T01:53:37.146Z,9.76
2019-03-21T01:57:43.060Z,9.52
2019-03-21T02:01:48.750Z,9.48
2019-03-21T02:05:54.427Z,9.47
2019-03-21T02:10:00.352Z,9.67
2019-03-21T02:14:06.102Z,9.54
2019-03-21T02:18:11.855Z,9.58
2019-03-21T02:22:17.630Z,9.63
2019-03-21T02:26:23.332Z,9.68
2019-03-21T02:30:50.325Z,9.66
2019-03-21T02:34:56.082Z,9.76
2019-03-21T02:39:01.796Z,9.66
2019-03-21T02:43:09.082Z,9.57
2019-03-21T02:47:14.832Z,9.76
2019-03-21T02:51:20.515Z,9.45
2019-03-21T02:55:26.607Z,9.36
2019-03-21T02:59:32.300Z,9.44
2019-03-21T03:03:37.956Z,9.32
2019-03-21T03:07:43.627Z,9.24
2019-03-21T03:11:51.160Z,9.28
2019-03-21T03:15:56.839Z,9.27
2019-03-21T03:20:02.692Z,9.33
2019-03-21T03:24:08.358Z,9.43
2019-03-21T03:28:39.435Z,9.47
2019-03-21T03:32:45.124Z,9.41
2019-03-21T03:36:50.811Z,9.30
2019-03-21T03:41:06.111Z,9.25
2019-03-21T03:45:16.977Z,9.27
2019-03-21T03:49:22.656Z,9.39
2019-03-21T03:53:28.334Z,9.18
2019-03-21T03:57:34.319Z,9.18
2019-03-21T04:01:40.144Z,9.28
2019-03-21T04:05:45.882Z,9.42
2019-03-21T04:09:51.997Z,9.50
2019-03-21T04:13:57.715Z,9.33
2019-03-21T04:18:03.536Z,9.10
2019-03-21T04:22:09.231Z,9.08
2019-03-21T04:26:33.630Z,9.10
2019-03-21T04:30:39.329Z,8.92
2019-03-21T04:34:45.011Z,8.83
2019-03-21T04:38:50.722Z,8.75
2019-03-21T04:42:56.397Z,8.61
2019-03-21T04:47:02.065Z,8.80
2019-03-21T04:51:07.760Z,8.88
2019-03-21T04:55:17.718Z,9.02
2019-03-21T04:59:23.396Z,9.21
2019-03-21T05:03:31.861Z,9.21
2019-03-21T05:07:37.558Z,9.29
2019-03-21T05:11:43.246Z,8.82
2019-03-21T05:15:51.440Z,8.63
2019-03-21T05:19:57.158Z,8.65
2019-03-21T05:24:02.847Z,8.65
2019-03-21T05:28:10.069Z,8.61
2019-03-21T05:32:15.748Z,8.70
2019-03-21T05:36:21.517Z,8.88
2019-03-21T05:40:27.285Z,8.89
2019-03-21T05:44:37.406Z,8.89
2019-03-21T05:48:43.074Z,8.99
2019-03-21T05:52:48.752Z,9.12
2019-03-21T05:56:54.445Z,9.11
2019-03-21T06:01:11.765Z,9.05
2019-03-21T06:05:17.503Z,8.88
2019-03-21T06:09:23.824Z,9.09
2019-03-21T06:13:29.584Z,9.36
2019-03-21T06:17:35.260Z,9.60
2019-03-21T06:22:12.333Z,9.51
2019-03-21T06:26:46.049Z,9.51
2019-03-21T06:30:51.733Z,9.47
2019-03-21T06:34:58.422Z,9.40
2019-03-21T06:39:05.610Z,9.49
2019-03-21T06:43:11.311Z,9.64
2019-03-21T06:47:16.996Z,9.76
2019-03-21T06:51:22.688Z,9.86
2019-03-21T06:55:28.340Z,9.93
2019-03-21T06:59:34.026Z,9.83
2019-03-21T07:03:39.720Z,10.19
2019-03-21T07:07:45.408Z,10.80
2019-03-21T07:11:51.118Z,11.51
2019-03-21T07:15:56.795Z,12.15
2019-03-21T07:20:02.489Z,12.67
2019-03-21T07:24:09.143Z,13.22
2019-03-21T07:28:14.846Z,13.39
2019-03-21T07:32:20.682Z,13.96
2019-03-21T07:36:26.464Z,14.46
2019-03-21T07:40:32.160Z,14.58
2019-03-21T07:44:37.845Z,14.89
2019-03-21T07:48:43.552Z,15.29
2019-03-21T07:52:49.248Z,15.85
2019-03-21T07:56:54.932Z,16.12
2019-03-21T08:01:01.772Z,16.37
2019-03-21T08:05:09.468Z,16.56
2019-03-21T08:09:15.225Z,16.78
2019-03-21T08:13:20.915Z,16.77
2019-03-21T08:17:26.606Z,16.83
2019-03-21T08:21:32.306Z,17.62
2019-03-21T08:25:38.074Z,18.03
2019-03-21T08:29:43.766Z,18.50
2019-03-21T08:33:49.539Z,19.06
2019-03-21T08:37:55.236Z,19.55
2019-03-21T08:42:00.945Z,19.68
2019-03-21T08:46:06.644Z,20.37
2019-03-21T08:50:13.114Z,20.95
2019-03-21T08:54:18.852Z,21.58
2019-03-21T08:58:24.539Z,22.35
2019-03-21T09:02:30.230Z,22.79
2019-03-21T09:06:35.943Z,23.44
2019-03-21T09:10:41.637Z,23.72
2019-03-21T09:14:47.321Z,24.13
2019-03-21T09:18:53.018Z,24.66
2019-03-21T09:22:58.707Z,24.91
2019-03-21T09:27:04.469Z,25.07
2019-03-21T09:31:10.155Z,25.15
2019-03-21T09:35:15.856Z,25.12
2019-03-21T09:39:21.545Z,24.06
2019-03-21T09:43:27.297Z,23.27
2019-03-21T09:47:32.999Z,22.80
2019-03-21T09:51:38.714Z,23.08
2019-03-21T09:55:44.431Z,21.74
2019-03-21T09:59:50.191Z,21.81
2019-03-21T10:03:55.884Z,21.79
2019-03-21T10:08:02.288Z,20.96
2019-03-21T10:12:07.966Z,20.58
2019-03-21T10:16:13.729Z,20.36
2019-03-21T10:20:19.447Z,20.80
2019-03-21T10:24:25.166Z,22.18
2019-03-21T10:28:30.843Z,22.15
2019-03-21T10:32:36.563Z,22.38
2019-03-21T10:36:42.224Z,22.85
2019-03-21T10:40:48.002Z,24.38
2019-03-21T10:44:53.700Z,25.28
2019-03-21T10:49:00.990Z,25.73
2019-03-21T10:53:07.817Z,27.09
2019-03-21T10:57:13.509Z,28.38
2019-03-21T11:06:13.015Z,30.01
2019-03-21T11:10:18.822Z,30.85
2019-03-21T11:14:24.566Z,31.13
2019-03-21T11:18:35.991Z,31.55
2019-03-21T11:22:37.708Z,32.09
2019-03-21T11:26:43.504Z,32.39
2019-03-21T11:30:49.168Z,32.83
2019-03-21T11:34:56.377Z,33.00
2019-03-21T11:39:02.151Z,33.06
2019-03-21T11:43:09.296Z,33.23
2019-03-21T11:47:15.066Z,33.73
2019-03-21T11:51:20.809Z,33.64
2019-03-21T11:55:26.510Z,33.90
2019-03-21T11:59:46.170Z,33.84
2019-03-21T12:03:39.675Z,33.63
2019-03-21T12:07:45.363Z,33.37
2019-03-21T12:11:51.047Z,31.64
2019-03-21T12:15:56.736Z,31.06
2019-03-21T12:20:02.426Z,30.24
2019-03-21T12:24:08.126Z,29.35
2019-03-21T12:28:13.825Z,29.06
2019-03-21T12:32:19.586Z,29.19
2019-03-21T12:36:25.319Z,28.89
2019-03-21T12:40:30.999Z,28.13
2019-03-21T12:44:36.751Z,27.05
2019-03-21T12:48:42.536Z,26.44
2019-03-21T12:52:48.209Z,26.48
2019-03-21T12:56:53.904Z,27.86
2019-03-21T13:00:59.608Z,29.26
2019-03-21T13:05:11.319Z,28.81
2019-03-21T13:09:16.991Z,28.21
2019-03-21T13:13:22.748Z,27.04
2019-03-21T13:17:28.444Z,26.97
2019-03-21T13:21:34.136Z,27.02
2019-03-21T13:25:39.852Z,27.40
2019-03-21T13:29:45.517Z,28.17
2019-03-21T13:33:51.222Z,29.32
2019-03-21T13:37:56.952Z,29.81
2019-03-21T13:42:02.648Z,30.19
2019-03-21T13:46:08.397Z,30.92
2019-03-21T13:50:14.261Z,31.21
2019-03-21T13:54:19.978Z,31.12
2019-03-21T13:58:25.670Z,31.53
2019-03-21T14:02:31.473Z,31.54
2019-03-21T14:06:37.302Z,31.36
2019-03-21T14:10:44.868Z,31.12
2019-03-21T14:14:50.548Z,31.12
2019-03-21T14:18:56.234Z,30.71
2019-03-21T14:23:02.008Z,30.50
2019-03-21T14:27:07.700Z,30.13
2019-03-21T14:31:13.403Z,30.10
2019-03-21T14:35:20.524Z,29.85
2019-03-21T14:39:26.201Z,29.42
2019-03-21T14:43:31.898Z,28.82
2019-03-21T14:47:37.730Z,28.42
2019-03-21T14:51:43.445Z,28.17
2019-03-21T14:55:49.213Z,27.51
2019-03-21T14:59:54.901Z,26.75
2019-03-21T15:04:00.601Z,25.48
2019-03-21T15:08:07.476Z,24.10
2019-03-21T15:12:13.148Z,22.98
2019-03-21T15:16:18.856Z,23.02
2019-03-21T15:20:24.560Z,22.83
2019-03-21T15:24:30.275Z,22.10
2019-03-21T15:28:35.970Z,21.73
2019-03-21T15:32:41.993Z,21.98
2019-03-21T15:36:47.759Z,22.37
2019-03-21T15:40:53.491Z,22.25
2019-03-21T15:45:15.424Z,22.04
2019-03-21T15:49:06.551Z,21.98
2019-03-21T15:53:12.296Z,22.11
2019-03-21T15:57:18.009Z,22.16
2019-03-21T16:01:23.696Z,21.67
2019-03-21T16:05:29.395Z,21.10
2019-03-21T16:09:35.098Z,20.79
2019-03-21T16:13:40.775Z,20.49
2019-03-21T16:17:46.467Z,20.27
2019-03-21T16:21:52.188Z,20.08
2019-03-21T16:25:57.867Z,19.89
2019-03-21T16:30:05.033Z,19.88
2019-03-21T16:34:10.703Z,19.82
2019-03-21T16:38:16.400Z,19.73
2019-03-21T16:42:22.143Z,19.61
2019-03-21T16:46:27.906Z,19.49
2019-03-21T16:50:33.615Z,19.40
2019-03-21T16:54:39.305Z,19.33
2019-03-21T16:58:48.151Z,19.29
2019-03-21T17:02:52.390Z,19.23
2019-03-21T17:06:58.087Z,19.15
2019-03-21T17:11:03.844Z,19.07
2019-03-21T17:15:11.658Z,18.94
2019-03-21T17:19:17.362Z,18.85
2019-03-21T17:23:23.113Z,18.82
2019-03-21T17:27:28.822Z,18.74
2019-03-21T17:31:34.490Z,18.64
2019-03-21T17:35:40.178Z,18.60
2019-03-21T17:39:45.883Z,18.50
2019-03-21T17:43:51.591Z,18.45
2019-03-21T17:48:35.398Z,18.37
2019-03-21T17:52:41.080Z,18.25
2019-03-21T17:56:48.547Z,18.18
2019-03-21T18:00:54.260Z,18.15
2019-03-21T18:05:00.043Z,18.07
2019-03-21T18:09:08.207Z,17.92
2019-03-21T18:13:15.461Z,17.81
2019-03-21T18:17:21.144Z,17.69
2019-03-21T18:21:26.917Z,17.64
2019-03-21T18:25:32.614Z,17.47
2019-03-21T18:29:38.315Z,17.29
2019-03-21T18:33:44.954Z,16.94
2019-03-21T18:37:50.743Z,16.84
2019-03-21T18:41:56.428Z,16.77
2019-03-21T18:46:02.155Z,16.69
2019-03-21T18:50:12.093Z,16.61
2019-03-21T18:54:17.751Z,16.48
2019-03-21T18:58:23.535Z,16.35
2019-03-21T19:02:29.263Z,16.24
2019-03-21T19:06:35.051Z,16.17
2019-03-21T19:10:40.744Z,16.07
2019-03-21T19:14:46.421Z,15.95
2019-03-21T19:18:52.121Z,15.67
2019-03-21T19:22:57.844Z,15.61
2019-03-21T19:27:03.549Z,15.58
2019-03-21T19:31:09.268Z,15.53
2019-03-21T19:35:15.187Z,15.57
2019-03-21T19:39:20.897Z,15.56
2019-03-21T19:43:26.735Z,15.51
2019-03-21T19:47:32.442Z,15.39
2019-03-21T19:51:39.248Z,15.29
2019-03-21T19:55:46.628Z,15.24
2019-03-21T19:59:52.393Z,15.19
2019-03-21T20:03:58.161Z,15.12
2019-03-21T20:08:03.951Z,15.08
2019-03-21T20:12:09.732Z,15.02
2019-03-21T20:16:15.438Z,14.87
2019-03-21T20:20:21.325Z,14.86
2019-03-21T20:24:27.147Z,14.89
2019-03-21T20:28:32.848Z,14.73
2019-03-21T20:32:38.540Z,14.70
2019-03-21T20:36:44.260Z,14.72
2019-03-21T20:40:50.021Z,14.77
2019-03-21T20:44:55.717Z,14.63
2019-03-21T20:49:02.100Z,14.58
2019-03-21T20:53:07.813Z,14.61
2019-03-21T20:57:13.516Z,14.59
2019-03-21T21:01:19.265Z,14.51
2019-03-21T21:05:25.167Z,14.47
2019-03-21T21:09:30.919Z,14.36
2019-03-21T21:13:36.658Z,14.27
2019-03-21T21:17:43.195Z,14.30
2019-03-21T21:21:50.041Z,14.23
2019-03-21T21:26:05.054Z,14.28
2019-03-21T21:30:03.215Z,14.18
2019-03-21T21:34:08.983Z,14.00
2019-03-21T21:38:14.678Z,13.83
2019-03-21T21:42:20.378Z,13.79
2019-03-21T21:46:26.164Z,13.85
2019-03-21T21:50:31.937Z,13.95
2019-03-21T21:54:37.702Z,14.08
2019-03-21T21:58:43.441Z,14.09
2019-03-21T22:02:49.148Z,14.09
2019-03-21T22:06:54.819Z,14.04
2019-03-21T22:11:00.513Z,13.96
2019-03-21T22:15:16.362Z,13.93
2019-03-21T22:19:22.073Z,13.81
2019-03-21T22:23:27.754Z,13.71
2019-03-21T22:27:33.440Z,13.60
2019-03-21T22:31:39.167Z,13.57
2019-03-21T22:35:44.858Z,13.45
2019-03-21T22:39:50.555Z,13.44
2019-03-21T22:43:56.258Z,13.37
2019-03-21T22:48:01.943Z,13.21
2019-03-21T22:52:07.648Z,13.33
2019-03-21T22:56:13.386Z,13.38
2019-03-21T23:00:24.705Z,13.38
2019-03-21T23:04:32.017Z,13.17
2019-03-21T23:12:44.462Z,13.08
2019-03-21T23:16:50.154Z,13.00
2019-03-21T23:20:55.878Z,12.88
2019-03-21T23:25:01.565Z,12.83
2019-03-21T23:29:07.314Z,12.76
2019-03-21T23:33:13.077Z,12.63
2019-03-21T23:37:18.790Z,12.71
2019-03-21T23:41:24.504Z,12.71
2019-03-21T23:45:30.171Z,12.59
2019-03-21T23:49:35.865Z,12.52
2019-03-21T23:53:41.572Z,12.45
2019-03-21T23:57:47.262Z,12.49
